Kezdőlap
METAR-TAF:

METAR-TAF

Repülőterek :

Eau Claire, Wisconsin, Amerikai Egyesült Államok

földrajzi szélesség: 44-51-55N, földrajzi hosszúság: 091-29-06W, magasság: 277 m

Jelenlegi meteorológiai megfigyelések

A jelentés 43 perccel ezelõtt készült, 20:56 UTC
Kelet-délkeleti szél 4 kt
Hőmérséklet 12°C
Páratartalom 26%
Légköri nyomás 1024 hPa
Látótávolság: 16.1 km
Derült ég

METAR: KEAU 242056Z 11004KT 10SM CLR 12/M07 A3024

Idő: 16:39 (21:39 UTC)

Előrejelzés

A jelentés 4 órával és 19 perccel ezelõtt készült, 17:20 UTC
Az előrejelzés 24-én 18 óra UTC és 25-én 18 óra UTC között érvényes
Különbözõ irányokból fújó szél 3 kt
Látótávolság: 10 km
Derült ég
25-én 0600 órától UTC szerint
Kelet-délkeleti szél 3 kt
Látótávolság: 10 km
Kevés felhő 15000 lábon
25-én 1300 órától UTC szerint
Dél-délkeleti szél 8 kt
Látótávolság: 10 km
Derült ég

TAF: KEAU 241720Z 2418/2518 VRB03KT P6SM SKC FM250600 12003KT P6SM FEW150 FM251300 15008KT P6SM SKC

Meteorológiai megfigyelések és előrejelzések több, mint 4000 repülőtéren (METAR és TAF jelentéseket).

A térképen piros és sárga pontok jelzik az elérhető meteorológiai állomásokat.

Mozgassa az egeret a pont fölött, hogy megjelenjen az állomás neve.

Azután kattintson az időjárási megfigyelések és előrejelzések megtekintéséhez.

A térkép megváltoztatása: kattintson a fekete keresztel jelölt zöld gombra ráközelítéshez, a vonallal jelölt zöld gombra távolításhoz, vagy a zöld nyilakra a szomszédos térképek eléréséhez.


METAR-TAF: